Veuillez saisir l'adresse e-mail associée à votre compte d'utilisateur. Un code de vérification vous sera adressé. Lorsque vous le recevrez, vous pourrez choisir un nouveau mot de passe

METAR TAF

[Source: ADDS]
METAR
LFCR 250530Z AUTO 17001KT CAVOK 09/09 Q1020 NOSIG =
LFBA 250530Z AUTO 12004KT 080V170 9999 -RA ///CB 16/15 Q1018 TEMPO 3000 SHRA BECMG 29010KT =
LFSL 250530Z AUTO 19004KT 160V220 9999 ///TCU 14/13 Q1019 TEMPO RA BECMG SCT012 BKN033 =
LFLW 250530Z AUTO VRB02KT CAVOK 09/08 Q1020 NOSIG =
TAF
LFCR 250500Z 2506/2606 14004KT CAVOK BECMG 2507/2509 25008KT SCT010 BKN030 TEMPO 2509/2512 RA BKN008 BKN025 PROB40 TEMPO 2513/2515 30015KT SHRA SCT015 BKN020CB =
LFBA 250500Z 2506/2515 29010KT 9999 SCT030 TEMPO 2506/2515 3000 SHRA BKN015 BKN035TCU PROB30 TEMPO 2511/2515 3000 TSRA BKN010 BKN030CB =
LFSL 250500Z 2506/2515 23005KT 7000 RA SCT030 BKN050 BECMG 2507/2509 9999 NSW SCT012 BKN033 TEMPO 2509/2512 26010KT RA BKN010 BKN030 =
LFLW 250500Z 2506/2515 09003KT CAVOK BECMG 2506/2508 27008KT TEMPO 2506/2509 -RA SCT023 BKN062 BECMG 2509/2510 BKN016 BKN046 PROB40 TEMPO 2510/2515 3000 -TSRA BKN010 BKN022CB =
SR / SS: 05:45 / 17:45 UTC (LFCC 2017-09-25)